Time;durP1;ratioP1;P1;durP2;ratioP2;P2;SDS_P1;SDS_P2;PMS_P1;PMS_P2;Temp;Humidity;BMP_temperature;BMP_pressure;BME280_temperature;BME280_humidity;BME280_pressure;Samples;Min_cycle;Max_cycle;Signal;HPM_P1;HPM_P2
2022/03/23 00:01:51;;;;;;;;;;;;;;;6.18;67.86;101584.28;5018416;28;19935;-77
2022/03/23 00:04:16;;;;;;;;;;;;;;;6.10;66.01;101586.84;5015449;28;19909;-78
2022/03/23 00:06:42;;;;;;;;;;;;;;;6.07;67.00;101592.13;5017170;28;19917;-78
2022/03/23 00:09:08;;;;;;;;;;;;;;;6.08;65.47;101593.03;5020351;28;20321;-77
2022/03/23 00:11:34;;;;;;;;;;;;;;;6.07;65.16;101589.47;5023318;28;20489;-78
2022/03/23 00:13:59;;;;;;;;;;;;;;;6.07;65.22;101588.53;5022817;28;19929;-78
2022/03/23 00:16:24;;;;;;;;;;;;;;;6.07;65.83;101580.59;5023247;28;20004;-78
2022/03/23 00:18:49;;;;;;;;;;;;;;;6.07;65.28;101586.81;5022007;28;19951;-79
2022/03/23 00:21:15;;;;;;;;;;;;;;;6.10;65.24;101589.50;5023264;28;19909;-78
2022/03/23 00:23:40;;;;;;;;;;;;;;;6.07;66.42;101581.50;5022198;28;19909;-79
2022/03/23 00:26:05;;;;;;;;;;;;;;;6.07;65.93;101581.50;5021037;28;19910;-78
2022/03/23 00:28:30;;;;;;;;;;;;;;;6.06;65.75;101585.00;5020137;28;19936;-78
2022/03/23 00:30:56;;;;;;;;;;;;;;;6.02;65.60;101580.53;5021372;28;19917;-78
2022/03/23 00:33:21;;;;;;;;;;;;;;;6.01;65.41;101581.41;5021243;28;19917;-78
2022/03/23 00:35:47;;;;;;;;;;;;;;;5.96;64.28;101583.13;5021020;28;19909;-78
2022/03/23 00:38:12;;;;;;;;;;;;;;;5.89;64.49;101577.78;5021360;28;20000;-78
2022/03/23 00:40:38;;;;;;;;;;;;;;;5.87;64.62;101584.84;5022202;28;19949;-77
2022/03/23 00:43:03;;;;;;;;;;;;;;;5.81;65.75;101575.03;5021774;28;20048;-77
2022/03/23 00:45:29;;;;;;;;;;;;;;;5.78;65.20;101574.09;5023029;28;19909;-78
2022/03/23 00:47:54;;;;;;;;;;;;;;;5.70;66.98;101574.91;5021320;28;20271;-79
2022/03/23 00:50:19;;;;;;;;;;;;;;;5.63;66.90;101582.78;5019628;28;19909;-77
2022/03/23 00:52:47;;;;;;;;;;;;;;;5.60;69.53;101578.34;5021717;28;19913;-77
2022/03/23 00:55:14;;;;;;;;;;;;;;;5.52;67.68;101572.03;5020144;28;20445;-78
2022/03/23 00:57:39;;;;;;;;;;;;;;;5.53;67.80;101581.78;5018859;28;19913;-78
2022/03/23 01:00:06;;;;;;;;;;;;;;;5.47;67.48;101577.28;5019223;28;19916;-78
2022/03/23 01:02:31;;;;;;;;;;;;;;;5.44;68.81;101579.91;5022197;28;19935;-79
2022/03/23 01:04:57;;;;;;;;;;;;;;;5.30;68.19;101572.69;5023845;28;19909;-79
2022/03/23 01:07:22;;;;;;;;;;;;;;;5.26;68.08;101573.50;5023763;28;19910;-79
2022/03/23 01:09:47;;;;;;;;;;;;;;;5.16;69.37;101575.16;5022754;28;20367;-78
2022/03/23 01:12:12;;;;;;;;;;;;;;;4.80;72.13;101562.31;5021735;28;19909;-79
2022/03/23 01:14:37;;;;;;;;;;;;;;;4.61;73.55;101561.16;5023246;28;19936;-78
2022/03/23 01:17:03;;;;;;;;;;;;;;;4.62;74.17;101569.97;5022496;28;19909;-78
2022/03/23 01:19:28;;;;;;;;;;;;;;;4.64;74.06;101565.59;5021050;28;19909;-78
2022/03/23 01:21:54;;;;;;;;;;;;;;;4.70;73.76;101565.69;5022732;28;19910;-79
2022/03/23 01:24:19;;;;;;;;;;;;;;;4.71;74.33;101559.53;5020675;28;19967;-79
2022/03/23 01:26:44;;;;;;;;;;;;;;;4.61;74.18;101568.19;5021544;28;19910;-77
2022/03/23 01:29:10;;;;;;;;;;;;;;;4.66;75.78;101563.88;5021095;28;19916;-77
2022/03/23 01:31:35;;;;;;;;;;;;;;;4.58;74.96;101567.28;5020353;28;19910;-78
2022/03/23 01:34:00;;;;;;;;;;;;;;;4.52;75.39;101566.28;5017889;28;19913;-79
2022/03/23 01:36:29;;;;;;;;;;;;;;;4.52;75.74;101567.19;5020198;28;19910;-77
2022/03/23 01:38:54;;;;;;;;;;;;;;;4.51;74.56;101565.38;5021222;28;19910;-79
2022/03/23 01:41:20;;;;;;;;;;;;;;;4.43;74.92;101565.25;5022982;28;20004;-79
2022/03/23 01:43:45;;;;;;;;;;;;;;;4.42;75.25;101565.25;5021425;28;19960;-79
2022/03/23 01:46:11;;;;;;;;;;;;;;;4.39;76.09;101562.56;5022359;28;20440;-79
2022/03/23 01:48:36;;;;;;;;;;;;;;;4.34;77.60;101557.19;5021355;28;19909;-79
2022/03/23 01:51:01;;;;;;;;;;;;;;;4.34;79.24;101562.47;5021044;28;20012;-79
2022/03/23 01:53:27;;;;;;;;;;;;;;;4.35;78.47;101554.59;5018660;28;19913;-79
2022/03/23 01:55:52;;;;;;;;;;;;;;;4.32;78.16;101559.81;5019740;28;19941;-78
2022/03/23 01:58:20;;;;;;;;;;;;;;;4.24;77.02;101546.47;5021778;28;19916;-79
2022/03/23 02:00:45;;;;;;;;;;;;;;;4.22;76.46;101548.22;5020928;28;19913;-77
2022/03/23 02:03:11;;;;;;;;;;;;;;;4.21;78.47;101554.34;5021750;28;19932;-79
2022/03/23 02:05:36;;;;;;;;;;;;;;;4.20;78.71;101552.56;5019349;28;19916;-78
2022/03/23 02:08:02;;;;;;;;;;;;;;;4.19;79.36;101552.53;5020070;28;19910;-78
2022/03/23 02:10:28;;;;;;;;;;;;;;;4.16;80.57;101544.56;5018259;28;19956;-77
2022/03/23 02:12:53;;;;;;;;;;;;;;;4.15;80.47;101545.44;5018716;28;20363;-78
2022/03/23 02:15:18;;;;;;;;;;;;;;;4.13;80.92;101541.00;5021007;28;19909;-78
2022/03/23 02:17:44;;;;;;;;;;;;;;;4.15;80.80;101543.66;5023278;28;19910;-79
2022/03/23 02:20:10;;;;;;;;;;;;;;;4.13;81.18;101533.06;5022455;28;19948;-79
2022/03/23 02:22:36;;;;;;;;;;;;;;;4.11;80.52;101542.72;5019725;28;19910;-77
2022/03/23 02:25:01;;;;;;;;;;;;;;;4.11;81.27;101539.19;5020379;28;19909;-79
2022/03/23 02:27:26;;;;;;;;;;;;;;;4.06;80.82;101541.75;5019405;28;19931;-79
2022/03/23 02:29:53;;;;;;;;;;;;;;;3.99;79.55;101545.16;5020264;28;19913;-79
2022/03/23 02:32:18;;;;;;;;;;;;;;;3.99;80.47;101539.88;5021370;28;19910;-79
2022/03/23 02:34:43;;;;;;;;;;;;;;;3.93;80.86;101540.66;5019956;28;20290;-79
2022/03/23 02:37:09;;;;;;;;;;;;;;;3.91;80.34;101542.38;5019181;28;19916;-79
2022/03/23 02:40:00;;;;;;;;;;;;;;;3.88;79.02;101543.22;5042013;22;19917;-83
2022/03/23 02:42:34;;;;;;;;;;;;;;;3.79;81.59;101543.03;4996127;28;19922;-84
2022/03/23 02:44:59;;;;;;;;;;;;;;;3.71;82.76;101534.97;4997779;28;19957;-84
2022/03/23 02:47:31;;;;;;;;;;;;;;;3.69;83.24;101537.59;4999717;28;19916;-84
2022/03/23 02:49:59;;;;;;;;;;;;;;;3.68;83.36;101537.56;5015273;28;19913;-84
2022/03/23 02:52:31;;;;;;;;;;;;;;;3.64;85.53;101533.97;4999254;28;19913;-84
2022/03/23 03:03:54;;;;;;;;;;;;;;;3.36;85.10;101538.69;5017111;28;20337;-83
2022/03/23 03:06:19;;;;;;;;;;;;;;;3.32;86.63;101539.50;5000281;28;20338;-84
2022/03/23 03:08:48;;;;;;;;;;;;;;;3.28;88.27;101537.66;5016721;28;19909;-84
2022/03/23 03:11:20;;;;;;;;;;;;;;;3.26;88.55;101534.09;5017325;28;20047;-84
2022/03/23 03:14:08;;;;;;;;;;;;;;;3.18;87.75;101541.84;5017653;28;19913;-84
2022/03/23 03:16:37;;;;;;;;;;;;;;;3.08;89.48;101533.75;4995693;28;19960;-84
2022/03/23 03:19:10;;;;;;;;;;;;;;;3.04;89.03;101536.28;5019899;28;19910;-84
2022/03/23 03:21:38;;;;;;;;;;;;;;;3.00;89.00;101540.59;5012863;28;19915;-85
2022/03/23 03:24:10;;;;;;;;;;;;;;;2.97;88.13;101543.16;5021052;28;19976;-83
2022/03/23 03:26:35;;;;;;;;;;;;;;;2.95;88.45;101540.50;5011217;28;19910;-84
2022/03/23 03:29:02;;;;;;;;;;;;;;;2.96;88.50;101544.94;5017813;28;19936;-84
2022/03/23 03:31:33;;;;;;;;;;;;;;;2.92;87.73;101543.06;4997770;28;19913;-83
2022/03/23 03:34:08;;;;;;;;;;;;;;;;;;;;;
2022/03/23 03:36:42;;;;;;;;;;;;;;;2.89;88.95;101537.72;5015332;28;19909;-85
2022/03/23 03:39:15;;;;;;;;;;;;;;;2.89;88.56;101533.34;5015930;28;19968;-85
2022/03/23 03:41:41;;;;;;;;;;;;;;;2.87;88.03;101537.69;4996852;28;19914;-84
2022/03/23 03:44:11;;;;;;;;;;;;;;;2.89;88.44;101540.34;5014304;28;20005;-85
2022/03/23 03:46:40;;;;;;;;;;;;;;;2.90;88.41;101535.13;5000664;28;19999;-84
2022/03/23 03:49:15;;;;;;;;;;;;;;;2.87;88.52;101539.44;4997555;28;19996;-84
2022/03/23 03:51:46;;;;;;;;;;;;;;;2.90;88.15;101544.78;4996800;28;19945;-84
2022/03/23 03:54:11;;;;;;;;;;;;;;;2.88;88.05;101538.59;4996744;28;19968;-84
2022/03/23 03:56:36;;;;;;;;;;;;;;;2.81;88.05;101539.31;4997029;28;19909;-84
2022/03/23 03:59:05;;;;;;;;;;;;;;;2.80;88.31;101546.34;5014704;28;19959;-84
2022/03/23 04:01:30;;;;;;;;;;;;;;;2.82;88.55;101546.34;4997510;28;20290;-84
2022/03/23 04:03:56;;;;;;;;;;;;;;;2.81;90.50;101550.72;5013529;28;20377;-84
2022/03/23 04:06:21;;;;;;;;;;;;;;;2.81;90.80;101549.88;5014827;28;19948;-84
2022/03/23 04:08:55;;;;;;;;;;;;;;;2.76;89.57;101545.34;5014644;28;19913;-84
2022/03/23 04:11:40;;;;;;;;;;;;;;;2.67;89.13;101553.06;4995103;28;19917;-84
2022/03/23 04:14:09;;;;;;;;;;;;;;;2.47;89.89;101545.59;4997511;28;19913;-85
2022/03/23 04:16:34;;;;;;;;;;;;;;;2.37;91.53;101548.84;4996907;28;19910;-84
2022/03/23 04:19:10;;;;;;;;;;;;;;;2.30;92.83;101543.41;5014379;28;20290;-84
2022/03/23 04:21:40;;;;;;;;;;;;;;;2.28;93.78;101552.13;4996789;28;20294;-83
2022/03/23 04:24:06;;;;;;;;;;;;;;;2.25;94.75;101550.31;5015209;28;19979;-85
2022/03/23 04:26:35;;;;;;;;;;;;;;;2.19;95.03;101550.19;4998356;28;19909;-84
2022/03/23 04:29:06;;;;;;;;;;;;;;;2.19;97.30;101556.31;4998398;28;20434;-83
2022/03/23 04:31:31;;;;;;;;;;;;;;;2.21;97.06;101548.47;4999784;28;20414;-83
2022/03/23 04:33:57;;;;;;;;;;;;;;;2.20;97.20;101554.59;5016104;28;19921;-82
2022/03/23 04:36:22;;;;;;;;;;;;;;;2.20;96.56;101558.13;4999538;28;19916;-84
2022/03/23 04:39:07;;;;;;;;;;;;;;;2.21;96.99;101553.75;5017802;28;20330;-87
2022/03/23 04:41:38;;;;;;;;;;;;;;;2.22;96.83;101560.78;4998930;28;19913;-83
2022/03/23 04:44:04;;;;;;;;;;;;;;;2.21;96.75;101559.00;4998344;28;19909;-84
2022/03/23 04:46:32;;;;;;;;;;;;;;;2.18;96.37;101564.19;4999276;28;19916;-84
2022/03/23 04:49:03;;;;;;;;;;;;;;;2.15;96.89;101564.13;5018283;28;19913;-84
2022/03/23 04:51:30;;;;;;;;;;;;;;;2.16;97.24;101560.63;5003653;28;19918;-85
2022/03/23 04:53:55;;;;;;;;;;;;;;;2.09;97.85;101565.75;5017468;28;19913;-85
2022/03/23 04:56:21;;;;;;;;;;;;;;;2.05;97.67;101571.78;5004013;28;19909;-85
2022/03/23 04:58:46;;;;;;;;;;;;;;;1.99;96.52;101568.97;5004861;28;19919;-85
2022/03/23 05:01:11;;;;;;;;;;;;;;;1.95;97.35;101564.50;5020061;28;19945;-85
2022/03/23 05:03:36;;;;;;;;;;;;;;;1.94;97.52;101570.59;5017148;28;20341;-85
2022/03/23 05:06:02;;;;;;;;;;;;;;;1.91;96.80;101570.56;5017808;28;20371;-85
2022/03/23 05:08:31;;;;;;;;;;;;;;;1.90;97.29;101574.91;5000139;28;20000;-85
2022/03/23 05:11:22;;;;;;;;;;;;;;;1.89;96.97;101571.38;4999455;28;20373;-85
2022/03/23 05:13:47;;;;;;;;;;;;;;;1.80;95.94;101578.16;4999735;28;19966;-85
2022/03/23 05:16:18;;;;;;;;;;;;;;;1.79;96.44;101582.53;5015784;28;20008;-85
2022/03/23 05:18:53;;;;;;;;;;;;;;;1.75;97.67;101580.66;5000949;28;19917;-85
2022/03/23 05:21:19;;;;;;;;;;;;;;;1.75;97.62;101576.25;4999860;28;19917;-85
2022/03/23 05:23:44;;;;;;;;;;;;;;;1.75;98.03;101580.66;5017758;28;19910;-85
2022/03/23 05:26:09;;;;;;;;;;;;;;;1.76;98.03;101585.06;5018690;28;19909;-84
2022/03/23 05:28:35;;;;;;;;;;;;;;;1.75;98.43;101585.94;5018184;28;20003;-84
2022/03/23 05:31:00;;;;;;;;;;;;;;;1.76;99.12;101587.69;4999201;28;19914;-84
2022/03/23 05:33:28;;;;;;;;;;;;;;;1.77;99.62;101589.50;4999548;28;20293;-84
2022/03/23 05:35:54;;;;;;;;;;;;;;;1.76;99.29;101587.69;5017880;28;20260;-84
2022/03/23 05:38:28;;;;;;;;;;;;;;;1.76;100.00;101587.69;5017346;28;19960;-84
2022/03/23 05:40:54;;;;;;;;;;;;;;;1.77;100.00;101592.13;4998958;28;19917;-83
2022/03/23 05:43:19;;;;;;;;;;;;;;;1.77;100.00;101594.75;4999276;28;20351;-85
2022/03/23 05:45:44;;;;;;;;;;;;;;;1.74;100.00;101590.31;5017309;28;19949;-87
2022/03/23 05:48:27;;;;;;;;;;;;;;;1.78;100.00;101591.25;4999724;28;20005;-86
2022/03/23 05:50:53;;;;;;;;;;;;;;;1.81;100.00;101596.63;5016558;28;19992;-85
2022/03/23 05:53:18;;;;;;;;;;;;;;;1.81;100.00;101596.63;4999009;28;19967;-85
2022/03/23 05:55:44;;;;;;;;;;;;;;;1.82;100.00;101597.50;5016569;28;19909;-86
2022/03/23 05:58:18;;;;;;;;;;;;;;;1.86;100.00;101597.63;4999070;28;19916;-86
2022/03/23 06:00:43;;;;;;;;;;;;;;;1.87;100.00;101604.69;4998977;28;20317;-86
2022/03/23 06:03:09;;;;;;;;;;;;;;;1.87;100.00;101602.06;4998996;28;19909;-86
2022/03/23 06:05:34;;;;;;;;;;;;;;;1.89;100.00;101597.72;4998603;28;19917;-85
2022/03/23 06:08:05;;;;;;;;;;;;;;;1.95;100.00;101601.38;4999716;28;19910;-86
2022/03/23 06:10:38;;;;;;;;;;;;;;;1.95;100.00;101604.00;5001095;28;19914;-86
2022/03/23 06:13:10;;;;;;;;;;;;;;;1.97;100.00;101604.94;5001816;28;19956;-86
2022/03/23 06:15:35;;;;;;;;;;;;;;;2.01;100.00;101596.28;4999421;28;19910;-84
2022/03/23 06:18:09;;;;;;;;;;;;;;;2.03;99.89;101599.84;5016517;28;19955;-85
2022/03/23 06:20:37;;;;;;;;;;;;;;;2.06;99.31;101599.91;4999080;28;19992;-86
2022/03/23 06:23:03;;;;;;;;;;;;;;;2.11;98.58;101606.19;5015831;28;19909;-86
2022/03/23 06:25:32;;;;;;;;;;;;;;;2.15;98.72;101611.56;4998045;28;19916;-85
2022/03/23 06:28:07;;;;;;;;;;;;;;;2.17;98.85;101610.75;4999064;28;20424;-85
2022/03/23 06:30:34;;;;;;;;;;;;;;;2.20;98.83;101615.19;5016300;28;19909;-86
2022/03/23 06:33:06;;;;;;;;;;;;;;;2.25;97.97;101610.94;4999007;28;19917;-85
2022/03/23 06:35:36;;;;;;;;;;;;;;;2.22;99.76;101610.84;4997566;28;19955;-86
2022/03/23 06:38:10;;;;;;;;;;;;;;;2.28;99.03;101616.31;4998795;28;19917;-85
2022/03/23 06:40:36;;;;;;;;;;;;;;;2.29;99.39;101614.56;5015755;28;19921;-86
2022/03/23 06:43:02;;;;;;;;;;;;;;;2.40;99.63;101617.44;4999077;28;20016;-85
2022/03/23 06:45:27;;;;;;;;;;;;;;;2.42;99.59;101615.78;4997877;28;19988;-86
2022/03/23 06:47:52;;;;;;;;;;;;;;;2.39;99.45;101615.69;5015929;28;19996;-86
2022/03/23 06:50:17;;;;;;;;;;;;;;;2.25;100.00;101613.56;4998847;28;19979;-85
2022/03/23 06:52:43;;;;;;;;;;;;;;;2.26;100.00;101623.28;5015478;28;20363;-86
2022/03/23 06:55:09;;;;;;;;;;;;;;;2.29;100.00;101620.75;4998443;28;20334;-86
2022/03/23 06:57:48;;;;;;;;;;;;;;;2.39;100.00;101616.59;4997944;28;19979;-85
2022/03/23 07:00:13;;;;;;;;;;;;;;;2.52;100.00;101627.44;4998568;28;19916;-86
2022/03/23 07:02:47;;;;;;;;;;;;;;;2.63;100.00;101619.81;4998941;28;19910;-85
2022/03/23 07:05:35;;;;;;;;;;;;;;;2.72;100.00;101619.13;5015428;28;19916;-86
2022/03/23 07:10:44;;;;;;;;;;;;;;;2.89;100.00;101627.44;5015684;28;20390;-86
2022/03/23 07:13:09;;;;;;;;;;;;;;;2.91;100.00;101623.09;4997828;28;19913;-87
2022/03/23 07:15:34;;;;;;;;;;;;;;;3.03;100.00;101624.22;5013698;28;19910;-84
2022/03/23 07:18:00;;;;;;;;;;;;;;;3.12;100.00;101619.16;5016604;28;19908;-84
2022/03/23 07:20:25;;;;;;;;;;;;;;;3.16;100.00;101621.03;5011839;28;19909;-85
2022/03/23 07:22:50;;;;;;;;;;;;;;;3.23;99.89;101628.22;5013805;28;19916;-85
2022/03/23 07:25:15;;;;;;;;;;;;;;;3.30;95.00;101634.50;5016650;28;19916;-85
2022/03/23 07:27:41;;;;;;;;;;;;;;;3.40;94.08;101629.44;5012078;28;19910;-87
2022/03/23 07:30:14;;;;;;;;;;;;;;;3.51;95.53;101627.00;5012788;28;19920;-87
2022/03/23 07:32:39;;;;;;;;;;;;;;;3.60;94.94;101627.22;5013597;28;19916;-85
2022/03/23 07:35:07;;;;;;;;;;;;;;;3.64;93.37;101634.34;5013306;28;19910;-85
2022/03/23 07:37:33;;;;;;;;;;;;;;;3.69;92.39;101627.41;5014968;28;19949;-84
2022/03/23 07:40:11;;;;;;;;;;;;;;;3.79;92.03;101632.88;5014375;28;19910;-84
2022/03/23 07:42:39;;;;;;;;;;;;;;;3.88;92.23;101630.44;4997774;28;19909;-85
2022/03/23 07:45:05;;;;;;;;;;;;;;;3.98;90.26;101635.88;5014975;28;19996;-85
2022/03/23 07:47:31;;;;;;;;;;;;;;;4.04;91.17;101628.06;5013747;28;19917;-85
2022/03/23 07:50:07;;;;;;;;;;;;;;;4.12;90.30;101631.72;5016478;28;19909;-85
2022/03/23 07:52:33;;;;;;;;;;;;;;;4.23;91.38;101631.03;5013094;28;20423;-85
2022/03/23 07:55:00;;;;;;;;;;;;;;;4.32;91.61;101635.63;5014536;28;19914;-84
2022/03/23 07:57:25;;;;;;;;;;;;;;;4.35;92.01;101644.50;4996957;28;19913;-86
2022/03/23 07:59:56;;;;;;;;;;;;;;;4.45;91.56;101642.03;5013355;28;19916;-85
2022/03/23 08:02:26;;;;;;;;;;;;;;;4.56;91.18;101640.44;5013459;28;19909;-85
2022/03/23 08:04:51;;;;;;;;;;;;;;;4.61;90.27;101643.19;5014096;28;19916;-86
2022/03/23 08:07:22;;;;;;;;;;;;;;;4.77;90.09;101646.03;5013356;28;20080;-86
2022/03/23 08:09:56;;;;;;;;;;;;;;;4.93;88.24;101655.13;5014321;28;19909;-85
2022/03/23 08:12:22;;;;;;;;;;;;;;;5.01;87.79;101658.78;5011863;28;19953;-86
2022/03/23 08:14:47;;;;;;;;;;;;;;;5.19;83.86;101659.94;5011309;28;19956;-86
2022/03/23 08:17:20;;;;;;;;;;;;;;;5.35;83.99;101663.72;5013315;28;19931;-85
2022/03/23 08:20:32;;;;;;;;;;;;;;;5.44;83.11;101656.72;5013348;28;20374;-86
2022/03/23 08:22:30;;;;;;;;;;;;;;;5.54;82.50;101660.41;5014436;28;20255;-85
2022/03/23 08:24:55;;;;;;;;;;;;;;;5.61;82.07;101658.72;5013480;28;19916;-86
2022/03/23 08:27:21;;;;;;;;;;;;;;;5.70;76.42;101657.06;5014633;28;19945;-85
2022/03/23 08:29:46;;;;;;;;;;;;;;;5.78;73.97;101657.19;5017168;28;19909;-84
2022/03/23 08:32:11;;;;;;;;;;;;;;;5.95;76.43;101650.31;5016693;28;19916;-85
2022/03/23 08:34:36;;;;;;;;;;;;;;;6.20;75.01;101651.47;4999991;28;19914;-85
2022/03/23 08:37:20;;;;;;;;;;;;;;;6.33;74.57;101656.91;5017545;28;19909;-84
2022/03/23 08:39:46;;;;;;;;;;;;;;;6.44;70.97;101659.69;5017659;28;20341;-85
2022/03/23 08:42:11;;;;;;;;;;;;;;;6.67;69.67;101648.38;5078871;23;20429;-86
2022/03/23 08:44:36;;;;;;;;;;;;;;;6.85;64.99;101652.94;5028447;28;20394;-85
2022/03/23 08:47:02;;;;;;;;;;;;;;;7.03;63.84;101665.47;5029256;28;19932;-85
2022/03/23 08:49:27;;;;;;;;;;;;;;;7.22;65.26;101659.34;5034304;28;19996;-86
2022/03/23 08:51:52;;;;;;;;;;;;;;;7.44;64.89;101660.41;5007742;28;19909;-85
2022/03/23 08:54:17;;;;;;;;;;;;;;;7.62;64.67;101666.69;5002954;28;19970;-84
2022/03/23 08:56:42;;;;;;;;;;;;;;;7.70;67.22;101664.06;5000639;28;20403;-84
2022/03/23 08:59:08;;;;;;;;;;;;;;;7.59;69.39;101670.22;5001032;28;19916;-84
2022/03/23 09:01:33;;;;;;;;;;;;;;;7.67;71.95;101674.66;5022239;28;19914;-84
2022/03/23 09:04:03;;;;;;;;;;;;;;;7.88;70.04;101679.19;5029304;28;19941;-85
2022/03/23 09:06:29;;;;;;;;;;;;;;;7.96;69.94;101673.00;5022136;28;19909;-87
2022/03/23 09:08:54;;;;;;;;;;;;;;;7.98;66.95;101671.25;5036002;28;19959;-86
2022/03/23 09:11:19;;;;;;;;;;;;;;;8.14;65.19;101673.03;5009396;28;19917;-84
2022/03/23 09:13:44;;;;;;;;;;;;;;;8.33;64.12;101667.78;5008647;28;19913;-85
2022/03/23 09:16:10;;;;;;;;;;;;;;;8.58;66.78;101675.81;5008303;28;19916;-85
2022/03/23 09:18:35;;;;;;;;;;;;;;;8.81;63.57;101661.59;5008723;28;19932;-85
2022/03/23 09:21:01;;;;;;;;;;;;;;;8.96;61.33;101673.16;5025762;28;19909;-85
2022/03/23 09:23:26;;;;;;;;;;;;;;;9.15;62.06;101665.13;5007241;28;19916;-85
2022/03/23 09:25:52;;;;;;;;;;;;;;;9.24;62.37;101667.78;5007019;28;20003;-85
2022/03/23 09:28:17;;;;;;;;;;;;;;;9.32;63.85;101666.88;5024535;28;20016;-85
2022/03/23 09:30:43;;;;;;;;;;;;;;;9.75;61.83;101662.28;5000325;28;20011;-84
2022/03/23 09:33:08;;;;;;;;;;;;;;;9.85;59.84;101664.00;4999290;28;19914;-84
2022/03/23 09:35:33;;;;;;;;;;;;;;;10.13;58.51;101666.53;4999336;28;19935;-84
2022/03/23 09:38:03;;;;;;;;;;;;;;;10.27;56.96;101662.91;5001841;28;19909;-85
2022/03/23 09:40:30;;;;;;;;;;;;;;;10.42;57.37;101663.69;5024147;28;19917;-85
2022/03/23 09:42:56;;;;;;;;;;;;;;;10.92;56.35;101668.66;5004990;28;19909;-85
2022/03/23 09:45:45;;;;;;;;;;;;;;;11.00;56.00;101661.47;5022176;28;19909;-85
2022/03/23 09:48:11;;;;;;;;;;;;;;;11.24;55.61;101659.41;5022338;28;19909;-85
2022/03/23 09:50:37;;;;;;;;;;;;;;;11.49;54.99;101667.16;5023454;28;19916;-85
2022/03/23 09:53:03;;;;;;;;;;;;;;;11.73;51.80;101662.41;5022283;28;20412;-85
2022/03/23 09:55:29;;;;;;;;;;;;;;;11.61;50.18;101663.47;5004220;28;20363;-85
2022/03/23 09:57:55;;;;;;;;;;;;;;;12.24;49.71;101668.00;5003368;28;19980;-85
2022/03/23 10:00:20;;;;;;;;;;;;;;;12.55;47.63;101663.97;5003180;28;19980;-85
2022/03/23 10:02:57;;;;;;;;;;;;;;;13.03;46.16;101664.97;5002592;28;19967;-85
2022/03/23 10:05:38;;;;;;;;;;;;;;;12.78;45.40;101668.06;5019792;28;19940;-84
2022/03/23 10:08:03;;;;;;;;;;;;;;;13.55;44.81;101668.47;5016193;28;19909;-83
2022/03/23 10:10:47;;;;;;;;;;;;;;;13.58;44.77;101668.44;5027427;28;19909;-85
2022/03/23 10:13:18;;;;;;;;;;;;;;;13.79;42.13;101671.56;5034233;28;20324;-85
2022/03/23 10:16:03;;;;;;;;;;;;;;;13.61;41.45;101668.34;5019929;28;19913;-85
2022/03/23 10:18:47;;;;;;;;;;;;;;;13.70;40.96;101668.19;5037230;28;19916;-85
2022/03/23 10:21:12;;;;;;;;;;;;;;;14.59;41.19;101654.50;5037651;28;19909;-85
2022/03/23 10:23:38;;;;;;;;;;;;;;;14.71;41.28;101663.19;5019703;28;19916;-85
2022/03/23 10:26:13;;;;;;;;;;;;;;;15.00;41.68;101656.19;5019847;28;19978;-85
2022/03/23 10:28:39;;;;;;;;;;;;;;;14.51;42.58;101660.06;5018640;28;19947;-85
2022/03/23 10:31:14;;;;;;;;;;;;;;;15.06;40.93;101658.72;5019306;28;19913;-85
2022/03/23 10:33:39;;;;;;;;;;;;;;;14.71;42.94;101655.13;5018331;28;19913;-85
2022/03/23 10:36:04;;;;;;;;;;;;;;;15.03;42.65;101650.72;5035703;28;20338;-85
2022/03/23 10:38:36;;;;;;;;;;;;;;;14.79;41.88;101653.09;5035936;28;19909;-85
2022/03/23 10:41:07;;;;;;;;;;;;;;;15.08;42.43;101648.81;5035466;28;19913;-86
2022/03/23 10:43:36;;;;;;;;;;;;;;;15.01;41.65;101651.69;5035105;28;19909;-85
2022/03/23 10:46:08;;;;;;;;;;;;;;;15.48;41.71;101645.03;5016989;28;19909;-84
2022/03/23 10:48:34;;;;;;;;;;;;;;;15.67;39.92;101645.38;5035159;28;19909;-85
2022/03/23 10:50:59;;;;;;;;;;;;;;;15.57;38.56;101643.88;5016604;28;19916;-85
2022/03/23 10:53:33;;;;;;;;;;;;;;;16.02;37.28;101649.72;5017484;28;19924;-85
2022/03/23 10:55:58;;;;;;;;;;;;;;;15.60;38.46;101647.38;5035791;28;19995;-84
2022/03/23 10:58:25;;;;;;;;;;;;;;;15.04;39.13;101647.13;5034989;28;20014;-85
2022/03/23 11:00:52;;;;;;;;;;;;;;;15.95;40.22;101649.06;5017107;28;20286;-86
2022/03/23 11:03:17;;;;;;;;;;;;;;;16.60;38.03;101640.69;5016984;28;19920;-85
2022/03/23 11:05:45;;;;;;;;;;;;;;;17.18;37.33;101648.66;5034914;28;19908;-85
2022/03/23 11:08:11;;;;;;;;;;;;;;;17.31;36.99;101641.00;5034760;28;19914;-85
2022/03/23 11:16:09;;;;;;;;;;;;;;;17.94;34.09;101644.91;5035572;28;19955;-85
2022/03/23 11:18:35;;;;;;;;;;;;;;;17.95;33.94;101643.97;5017893;28;19916;-85
2022/03/23 11:21:00;;;;;;;;;;;;;;;17.38;34.42;101637.13;5035199;28;19979;-84
2022/03/23 11:23:30;;;;;;;;;;;;;;;18.13;32.91;101630.66;5016856;28;19909;-85
2022/03/23 11:26:25;;;;;;;;;;;;;;;18.29;32.69;101632.78;5016994;28;20324;-85
2022/03/23 11:28:52;;;;;;;;;;;;;;;18.81;32.55;101628.78;5021836;28;19919;-85
2022/03/23 11:31:17;;;;;;;;;;;;;;;18.66;30.72;101630.31;5017228;28;19909;-85
2022/03/23 11:33:45;;;;;;;;;;;;;;;18.69;30.62;101627.50;5035203;28;19916;-84
2022/03/23 11:36:11;;;;;;;;;;;;;;;18.42;31.86;101625.91;5035835;28;19909;-86
2022/03/23 11:38:37;;;;;;;;;;;;;;;17.31;31.74;101628.38;5028057;28;19916;-85
2022/03/23 11:41:03;;;;;;;;;;;;;;;17.68;31.70;101627.91;5026301;28;20389;-86
2022/03/23 11:43:37;;;;;;;;;;;;;;;17.08;31.68;101624.69;5027298;28;19980;-85
2022/03/23 11:46:04;;;;;;;;;;;;;;;17.43;32.05;101623.44;5020032;28;20365;-85
2022/03/23 11:48:45;;;;;;;;;;;;;;;18.08;31.09;101619.16;5017053;28;20380;-85
2022/03/23 11:51:13;;;;;;;;;;;;;;;18.44;30.47;101615.03;5015602;28;20277;-85
2022/03/23 11:53:45;;;;;;;;;;;;;;;18.45;29.74;101610.50;5034390;28;20015;-86
2022/03/23 11:56:10;;;;;;;;;;;;;;;18.91;30.67;101613.03;5016880;28;19919;-85
2022/03/23 11:58:37;;;;;;;;;;;;;;;18.81;29.21;101611.69;5016096;28;20358;-85
2022/03/23 12:01:08;;;;;;;;;;;;;;;18.41;29.56;101610.63;5014720;28;20485;-85
2022/03/23 12:03:48;;;;;;;;;;;;;;;18.18;29.98;101607.03;5058637;28;19980;-86
2022/03/23 12:06:14;;;;;;;;;;;;;;;19.01;28.82;101599.09;5030147;28;19909;-85
2022/03/23 12:08:48;;;;;;;;;;;;;;;19.16;28.35;101595.69;5042785;28;19909;-85
2022/03/23 12:11:42;;;;;;;;;;;;;;;19.33;28.89;101595.91;5022813;28;19909;-84
2022/03/23 12:14:18;;;;;;;;;;;;;;;19.47;28.97;101596.13;5027777;28;20011;-85
2022/03/23 12:16:46;;;;;;;;;;;;;;;19.39;28.24;101590.19;5021884;28;19909;-85
2022/03/23 12:19:32;;;;;;;;;;;;;;;19.48;28.69;101586.16;5021172;28;19948;-85
2022/03/23 12:22:14;;;;;;;;;;;;;;;19.25;27.66;101588.97;5001738;28;20366;-86
2022/03/23 12:24:58;;;;;;;;;;;;;;;19.45;28.66;101589.03;5027134;28;19908;-85
2022/03/23 12:27:23;;;;;;;;;;;;;;;19.54;26.11;101583.16;5000396;28;19916;-85
2022/03/23 12:29:49;;;;;;;;;;;;;;;19.51;27.42;101586.88;5000526;28;19910;-85
2022/03/23 12:32:15;;;;;;;;;;;;;;;19.39;25.89;101580.22;4999945;28;20457;-85
2022/03/23 12:34:42;;;;;;;;;;;;;;;19.02;27.22;101571.94;5017743;28;20016;-85
2022/03/23 12:37:15;;;;;;;;;;;;;;;18.81;28.05;101582.78;5016663;28;19909;-86
2022/03/23 12:39:45;;;;;;;;;;;;;;;18.49;27.42;101575.16;5001811;28;20279;-85
2022/03/23 12:42:15;;;;;;;;;;;;;;;18.38;27.43;101572.91;5026058;28;19996;-85
2022/03/23 12:45:07;;;;;;;;;;;;;;;18.66;29.45;101565.41;5008400;28;19976;-85
2022/03/23 12:47:51;;;;;;;;;;;;;;;18.25;28.84;101561.72;5026351;28;19909;-82
2022/03/23 12:59:25;;;;;;;;;;;;;;;18.51;27.23;101561.53;5027276;28;19916;-85
2022/03/23 13:01:54;;;;;;;;;;;;;;;19.02;28.27;101558.41;5009667;28;19999;-85
2022/03/23 13:04:47;;;;;;;;;;;;;;;18.67;26.85;101550.94;5009295;28;19909;-85
2022/03/23 13:07:33;;;;;;;;;;;;;;;18.62;26.67;101552.97;5002841;28;19909;-84
2022/03/23 13:10:08;;;;;;;;;;;;;;;19.41;26.39;101550.34;5006215;28;20367;-85
2022/03/23 13:12:38;;;;;;;;;;;;;;;19.16;26.57;101546.97;5008467;28;19945;-85
2022/03/23 13:15:27;;;;;;;;;;;;;;;18.78;26.94;101539.66;5025480;28;19914;-85
2022/03/23 13:17:52;;;;;;;;;;;;;;;18.58;29.20;101545.94;5026155;28;19921;-85
2022/03/23 13:20:21;;;;;;;;;;;;;;;18.69;27.48;101549.03;5010934;28;19909;-85